Time;durP1;ratioP1;P1;durP2;ratioP2;P2;SDS_P1;SDS_P2;PMS_P1;PMS_P2;Temp;Humidity;BMP_temperature;BMP_pressure;BME280_temperature;BME280_humidity;BME280_pressure;Samples;Min_cycle;Max_cycle;Signal;HPM_P1;HPM_P2
2021/09/15 00:01:59;;;;;;;9.00;8.20;;;19.40;99.90;;;;;;5013004;28;20215;-83
2021/09/15 00:04:25;;;;;;;8.77;7.97;;;19.30;99.90;;;;;;5013109;28;20171;-83
2021/09/15 00:06:50;;;;;;;9.67;8.33;;;19.30;99.90;;;;;;5018827;28;20194;-82
2021/09/15 00:09:16;;;;;;;8.47;7.77;;;19.30;99.90;;;;;;5019112;28;20195;-83
2021/09/15 00:11:41;;;;;;;8.57;7.97;;;19.30;99.90;;;;;;5031001;28;20191;-83
2021/09/15 00:14:07;;;;;;;10.40;8.30;;;19.30;99.90;;;;;;5032493;28;20191;-83
2021/09/15 00:16:33;;;;;;;8.90;8.00;;;19.30;99.90;;;;;;5032758;28;20183;-83
2021/09/15 00:18:58;;;;;;;9.23;8.33;;;19.30;99.90;;;;;;5031625;28;20183;-82
2021/09/15 00:21:24;;;;;;;10.43;8.17;;;19.30;99.90;;;;;;5030870;28;20206;-82
2021/09/15 00:23:50;;;;;;;9.90;9.20;;;19.30;99.90;;;;;;5029167;28;20171;-83
2021/09/15 00:26:15;;;;;;;9.57;8.67;;;19.30;99.90;;;;;;5031859;28;20186;-83
2021/09/15 00:28:41;;;;;;;9.53;8.63;;;19.30;99.90;;;;;;5031756;28;20183;-83
2021/09/15 00:31:06;;;;;;;8.87;7.97;;;19.30;99.90;;;;;;5031297;28;20202;-83
2021/09/15 00:33:32;;;;;;;9.43;8.63;;;19.30;99.90;;;;;;5030449;28;20171;-82
2021/09/15 00:35:58;;;;;;;9.10;8.40;;;19.30;99.90;;;;;;5030214;28;20186;-83
2021/09/15 00:38:23;;;;;;;8.57;7.97;;;19.30;99.90;;;;;;5029703;28;20630;-83
2021/09/15 00:40:49;;;;;;;8.40;7.77;;;19.30;99.90;;;;;;5026779;28;20199;-83
2021/09/15 00:43:15;;;;;;;9.30;8.60;;;19.30;99.90;;;;;;5031147;28;20213;-81
2021/09/15 00:45:40;;;;;;;8.87;8.17;;;19.30;99.90;;;;;;5031764;28;20183;-82
2021/09/15 00:48:06;;;;;;;9.33;8.53;;;19.30;99.90;;;;;;5030745;28;20197;-82
2021/09/15 00:50:32;;;;;;;9.17;8.37;;;19.30;99.90;;;;;;5031223;28;20210;-83
2021/09/15 00:53:00;;;;;;;8.93;8.23;;;19.30;99.90;;;;;;5031749;28;20646;-83
2021/09/15 00:55:26;;;;;;;8.93;8.23;;;19.20;99.90;;;;;;5030253;28;20178;-83
2021/09/15 00:57:51;;;;;;;9.20;8.07;;;19.30;99.90;;;;;;5031910;28;20558;-83
2021/09/15 01:00:17;;;;;;;9.43;8.17;;;19.30;99.90;;;;;;5030556;28;20183;-83
2021/09/15 01:02:43;;;;;;;8.40;7.70;;;19.30;99.90;;;;;;5030937;28;20179;-82
2021/09/15 01:05:09;;;;;;;9.00;8.20;;;19.30;99.90;;;;;;5031101;28;20538;-83
2021/09/15 01:07:35;;;;;;;8.73;8.03;;;19.30;99.90;;;;;;5029467;28;20265;-83
2021/09/15 01:10:03;;;;;;;9.30;8.50;;;19.20;99.90;;;;;;5031078;28;20253;-83
2021/09/15 01:12:29;;;;;;;8.77;8.03;;;19.20;99.90;;;;;;5031019;28;20175;-83
2021/09/15 01:14:55;;;;;;;9.20;8.40;;;19.20;99.90;;;;;;5030888;28;20175;-83
2021/09/15 01:17:20;;;;;;;8.60;8.00;;;19.20;99.90;;;;;;5029125;28;20305;-83
2021/09/15 01:19:46;;;;;;;9.50;8.60;;;19.20;99.90;;;;;;5029874;28;20183;-83
2021/09/15 01:22:11;;;;;;;9.13;8.33;;;19.20;99.90;;;;;;5026203;28;20199;-82
2021/09/15 01:24:38;;;;;;;8.67;7.97;;;19.20;99.90;;;;;;5025351;28;20186;-82
2021/09/15 01:27:03;;;;;;;8.77;8.07;;;19.20;99.90;;;;;;5025027;28;20274;-82
2021/09/15 01:29:31;;;;;;;8.73;8.13;;;19.20;99.90;;;;;;5026196;28;20256;-83
2021/09/15 01:32:09;;;;;;;8.80;8.10;;;19.20;99.90;;;;;;5022063;28;20198;-82
2021/09/15 01:34:55;;;;;;;9.33;8.47;;;19.20;99.90;;;;;;5019813;28;20273;-82
2021/09/15 01:37:21;;;;;;;9.53;7.80;;;19.20;99.90;;;;;;5020846;28;20210;-83
2021/09/15 01:39:47;;;;;;;9.13;8.33;;;19.20;99.90;;;;;;5018317;28;20176;-82
2021/09/15 01:42:13;;;;;;;9.63;8.73;;;19.20;99.90;;;;;;5022545;28;20198;-83
2021/09/15 01:44:46;;;;;;;9.20;8.40;;;19.20;99.90;;;;;;5023538;28;20206;-82
2021/09/15 01:47:14;;;;;;;9.93;9.13;;;19.30;99.90;;;;;;5024471;28;20210;-83
2021/09/15 01:49:41;;;;;;;10.40;9.40;;;19.30;99.90;;;;;;5024699;28;20195;-82
2021/09/15 01:52:08;;;;;;;11.67;10.60;;;19.30;99.90;;;;;;5024444;28;20293;-83
2021/09/15 01:54:34;;;;;;;11.40;10.20;;;19.30;99.90;;;;;;5024385;28;20172;-82
2021/09/15 01:57:01;;;;;;;11.23;10.10;;;19.30;99.90;;;;;;5024284;28;20171;-82
2021/09/15 01:59:27;;;;;;;11.87;10.47;;;19.30;99.90;;;;;;5023115;28;20183;-83
2021/09/15 02:01:53;;;;;;;12.03;10.73;;;19.30;99.90;;;;;;5023129;28;20223;-83
2021/09/15 02:04:19;;;;;;;12.13;11.03;;;19.30;99.90;;;;;;5024509;28;20546;-82
2021/09/15 02:06:44;;;;;;;11.83;10.63;;;19.20;99.90;;;;;;5018938;28;20172;-83
2021/09/15 02:09:10;;;;;;;11.10;10.10;;;19.20;99.90;;;;;;5020161;28;20191;-82
2021/09/15 02:11:37;;;;;;;10.80;9.80;;;19.20;99.90;;;;;;5025877;28;20657;-83
2021/09/15 02:14:04;;;;;;;11.77;10.67;;;19.10;99.90;;;;;;5024666;28;20242;-83
2021/09/15 02:16:30;;;;;;;10.60;9.70;;;19.10;99.90;;;;;;5024847;28;20168;-82
2021/09/15 02:18:55;;;;;;;9.70;8.90;;;19.00;99.90;;;;;;5036467;28;20544;-83
2021/09/15 02:21:21;;;;;;;9.93;9.07;;;19.00;99.90;;;;;;5025108;28;20206;-83
2021/09/15 02:23:47;;;;;;;10.47;9.47;;;18.90;99.90;;;;;;5024841;28;20286;-82
2021/09/15 02:26:14;;;;;;;11.00;10.00;;;18.90;99.90;;;;;;5024627;28;20182;-82
2021/09/15 02:28:40;;;;;;;10.90;9.83;;;18.80;99.90;;;;;;5022642;28;20183;-82
2021/09/15 02:31:06;;;;;;;11.03;9.90;;;18.80;99.90;;;;;;5023354;28;20202;-82
2021/09/15 02:33:32;;;;;;;9.60;8.73;;;18.90;99.90;;;;;;5025263;28;20263;-82
2021/09/15 02:35:58;;;;;;;12.47;10.27;;;18.90;99.90;;;;;;5024257;28;20199;-82
2021/09/15 02:38:23;;;;;;;10.57;9.27;;;18.90;99.90;;;;;;5025374;28;20186;-82
2021/09/15 02:40:49;;;;;;;10.50;9.43;;;18.90;99.90;;;;;;5026005;28;20203;-82
2021/09/15 02:43:14;;;;;;;10.57;9.67;;;18.90;99.90;;;;;;5024450;28;20214;-82
2021/09/15 02:45:40;;;;;;;10.50;9.47;;;18.90;99.90;;;;;;5025151;28;20183;-82
2021/09/15 02:48:06;;;;;;;10.80;9.90;;;18.90;99.90;;;;;;5025030;28;20193;-82
2021/09/15 02:50:32;;;;;;;11.13;10.13;;;18.90;99.90;;;;;;5023531;28;20229;-82
2021/09/15 02:52:58;;;;;;;11.53;10.53;;;18.90;99.90;;;;;;5024045;28;20179;-82
2021/09/15 02:55:24;;;;;;;11.67;10.47;;;18.90;99.90;;;;;;5024553;28;20191;-82
2021/09/15 02:57:50;;;;;;;11.43;10.23;;;18.90;99.90;;;;;;5024687;28;20266;-82
2021/09/15 03:00:16;;;;;;;10.83;9.80;;;18.80;99.90;;;;;;5023295;28;20187;-82
2021/09/15 03:02:42;;;;;;;11.73;10.70;;;18.80;99.90;;;;;;5024374;28;20253;-82
2021/09/15 03:05:08;;;;;;;12.07;11.07;;;18.80;99.90;;;;;;5022121;28;20251;-82
2021/09/15 03:07:34;;;;;;;12.17;10.97;;;18.80;99.90;;;;;;5013896;28;20311;-81
2021/09/15 03:09:59;;;;;;;11.20;10.20;;;18.70;99.90;;;;;;5022167;28;20205;-82
2021/09/15 03:12:25;;;;;;;11.40;10.40;;;18.70;99.90;;;;;;5022566;28;20195;-82
2021/09/15 03:14:51;;;;;;;10.70;9.80;;;18.70;99.90;;;;;;5019676;28;20175;-82
2021/09/15 03:17:17;;;;;;;11.60;10.37;;;18.70;99.90;;;;;;5009424;28;20176;-83
2021/09/15 03:19:42;;;;;;;10.77;9.73;;;18.80;99.90;;;;;;5019394;28;20214;-82
2021/09/15 03:22:08;;;;;;;11.57;10.63;;;18.80;99.90;;;;;;5002379;28;20198;-82
2021/09/15 03:24:34;;;;;;;10.73;9.73;;;18.80;99.90;;;;;;5004158;28;20179;-82
2021/09/15 03:27:03;;;;;;;11.77;10.63;;;18.80;99.90;;;;;;5008022;28;20681;-82
2021/09/15 03:29:32;;;;;;;12.30;11.03;;;18.80;99.90;;;;;;5003913;28;20207;-82
2021/09/15 03:31:58;;;;;;;10.73;9.83;;;18.80;99.90;;;;;;5006128;28;20196;-83
2021/09/15 03:34:24;;;;;;;11.83;10.63;;;18.80;99.90;;;;;;5006368;28;20171;-82
2021/09/15 03:36:50;;;;;;;11.40;10.40;;;18.80;99.90;;;;;;5006636;28;20183;-82
2021/09/15 03:39:16;;;;;;;11.77;10.67;;;18.80;99.90;;;;;;5001373;28;20211;-82
2021/09/15 03:41:42;;;;;;;10.30;9.60;;;18.80;99.90;;;;;;5006543;28;20199;-82
2021/09/15 03:44:08;;;;;;;11.43;10.43;;;18.80;99.90;;;;;;5009591;28;20175;-82
2021/09/15 03:46:34;;;;;;;10.97;10.10;;;18.80;99.90;;;;;;5005830;28;20180;-82
2021/09/15 03:49:00;;;;;;;11.87;10.80;;;18.80;99.90;;;;;;5006102;28;20203;-82
2021/09/15 03:51:26;;;;;;;11.03;9.80;;;18.80;99.90;;;;;;5003361;28;20549;-82
2021/09/15 03:53:52;;;;;;;11.30;10.30;;;18.80;99.90;;;;;;5009567;28;20187;-82
2021/09/15 03:56:17;;;;;;;11.90;10.77;;;18.80;99.90;;;;;;5007490;28;20180;-83
2021/09/15 03:58:43;;;;;;;11.23;10.10;;;18.80;99.90;;;;;;5013060;28;20175;-83
2021/09/15 04:01:10;;;;;;;11.67;10.60;;;18.80;99.90;;;;;;5016230;28;20210;-82
2021/09/15 04:03:36;;;;;;;12.53;10.53;;;18.70;99.90;;;;;;5024897;28;20175;-83
2021/09/15 04:06:02;;;;;;;11.90;10.63;;;18.60;99.90;;;;;;5026223;28;20175;-82
2021/09/15 04:08:28;;;;;;;11.00;10.07;;;18.60;99.90;;;;;;5025174;28;20305;-82
2021/09/15 04:10:53;;;;;;;10.73;9.83;;;18.60;99.90;;;;;;5027671;28;20218;-83
2021/09/15 04:13:19;;;;;;;11.70;10.27;;;18.60;99.90;;;;;;5027386;28;20202;-82
2021/09/15 04:15:46;;;;;;;11.53;10.43;;;18.60;99.90;;;;;;5027771;28;20243;-82
2021/09/15 04:18:13;;;;;;;11.43;10.53;;;18.60;99.90;;;;;;5026352;28;20190;-81
2021/09/15 04:20:39;;;;;;;11.87;10.77;;;18.60;99.90;;;;;;5027181;28;20273;-82
2021/09/15 04:23:12;;;;;;;11.53;10.53;;;18.60;99.90;;;;;;5026294;28;20186;-81
2021/09/15 04:31:39;;;;;;;11.17;10.37;;;18.70;99.90;;;;;;5026797;28;20268;-82
2021/09/15 04:34:00;;;;;;;10.40;9.60;;;18.70;99.90;;;;;;5024465;28;20187;-80
2021/09/15 04:36:26;;;;;;;11.50;9.93;;;18.70;99.90;;;;;;5027797;28;20249;-81
2021/09/15 04:38:52;;;;;;;11.07;9.30;;;18.70;99.90;;;;;;5030390;28;20191;-81
2021/09/15 04:41:18;;;;;;;10.20;9.40;;;18.70;99.90;;;;;;5029397;28;20202;-81
2021/09/15 04:43:44;;;;;;;9.97;9.20;;;18.60;99.90;;;;;;5029947;28;20202;-81
2021/09/15 04:46:10;;;;;;;10.50;9.53;;;18.70;99.90;;;;;;5029161;28;20171;-81
2021/09/15 04:48:37;;;;;;;12.10;10.90;;;18.70;99.90;;;;;;5029877;28;20186;-82
2021/09/15 04:51:03;;;;;;;11.47;10.30;;;18.70;99.90;;;;;;5030384;28;20190;-81
2021/09/15 04:53:29;;;;;;;11.57;10.57;;;18.60;99.90;;;;;;5030420;28;20179;-81
2021/09/15 04:55:55;;;;;;;11.97;10.80;;;18.70;99.90;;;;;;5029525;28;20190;-81
2021/09/15 04:58:20;;;;;;;11.20;10.20;;;18.60;99.90;;;;;;5029198;28;20207;-81
2021/09/15 05:00:46;;;;;;;11.13;10.03;;;18.60;99.90;;;;;;5029692;28;20228;-81
2021/09/15 05:03:11;;;;;;;12.43;11.30;;;18.50;99.90;;;;;;5026069;28;20187;-80
2021/09/15 05:05:37;;;;;;;10.83;9.93;;;18.50;99.90;;;;;;5027266;28;20270;-82
2021/09/15 05:08:03;;;;;;;12.70;11.50;;;18.40;99.90;;;;;;5029289;28;20267;-81
2021/09/15 05:10:29;;;;;;;11.50;10.60;;;18.30;99.90;;;;;;5030364;28;20215;-82
2021/09/15 05:12:56;;;;;;;11.73;10.73;;;18.30;99.90;;;;;;5031095;28;20221;-81
2021/09/15 05:15:22;;;;;;;12.10;10.90;;;18.40;99.90;;;;;;5031523;28;20263;-81
2021/09/15 05:17:49;;;;;;;11.03;10.13;;;18.30;99.90;;;;;;5029909;28;20198;-81
2021/09/15 05:20:17;;;;;;;11.33;10.43;;;18.40;99.90;;;;;;5030935;28;20186;-81
2021/09/15 05:22:48;;;;;;;11.50;10.57;;;18.40;99.90;;;;;;5029535;28;20187;-81
2021/09/15 05:25:15;;;;;;;11.40;10.20;;;18.40;99.90;;;;;;5032353;28;20239;-81
2021/09/15 05:27:41;;;;;;;10.80;9.83;;;18.40;99.90;;;;;;5031943;28;20179;-81
2021/09/15 05:30:08;;;;;;;10.70;9.70;;;18.40;99.90;;;;;;5031796;28;20302;-81
2021/09/15 05:32:34;;;;;;;10.80;9.70;;;18.40;99.90;;;;;;5031371;28;20549;-80
2021/09/15 05:35:01;;;;;;;10.80;9.50;;;18.50;99.90;;;;;;5030143;28;20206;-81
2021/09/15 05:37:26;;;;;;;10.83;9.67;;;18.50;99.90;;;;;;5030969;28;20178;-81
2021/09/15 05:39:53;;;;;;;10.23;9.20;;;18.50;99.90;;;;;;5030076;28;20207;-82
2021/09/15 05:42:19;;;;;;;10.47;9.47;;;18.50;99.90;;;;;;5025711;28;20253;-80
2021/09/15 05:44:44;;;;;;;10.57;9.67;;;18.50;99.90;;;;;;5016120;28;20183;-82
2021/09/15 05:47:10;;;;;;;10.83;9.53;;;18.60;99.90;;;;;;5028570;28;20183;-82
2021/09/15 05:49:35;;;;;;;11.17;10.17;;;18.60;99.90;;;;;;5026863;28;20203;-82
2021/09/15 05:52:01;;;;;;;11.17;10.13;;;18.60;99.90;;;;;;5028342;28;20274;-81
2021/09/15 05:54:27;;;;;;;10.93;9.83;;;18.50;99.90;;;;;;5027620;28;20241;-82
2021/09/15 05:56:53;;;;;;;11.90;10.80;;;18.50;99.90;;;;;;5026916;28;20187;-81
2021/09/15 05:59:18;;;;;;;15.13;11.43;;;18.60;99.90;;;;;;5026785;28;20190;-82
2021/09/15 06:01:44;;;;;;;10.90;9.90;;;18.60;99.90;;;;;;5026894;28;20242;-81
2021/09/15 06:04:10;;;;;;;13.53;10.27;;;18.50;99.90;;;;;;5026222;28;20250;-82
2021/09/15 06:06:35;;;;;;;12.30;11.20;;;18.50;99.90;;;;;;5022484;28;20690;-81
2021/09/15 06:09:01;;;;;;;11.83;10.63;;;18.50;99.90;;;;;;5022493;28;20229;-82
2021/09/15 06:11:27;;;;;;;12.33;11.20;;;18.60;99.90;;;;;;5026936;28;20263;-82
2021/09/15 06:13:54;;;;;;;13.50;11.27;;;18.60;99.90;;;;;;5027124;28;20209;-82
2021/09/15 06:16:21;;;;;;;13.13;11.83;;;18.50;99.90;;;;;;5026818;28;20175;-82
2021/09/15 06:18:46;;;;;;;15.47;13.00;;;18.60;99.90;;;;;;5025066;28;20209;-82
2021/09/15 06:21:12;;;;;;;13.67;12.27;;;18.70;99.90;;;;;;5025639;28;20203;-82
2021/09/15 06:23:38;;;;;;;14.27;12.77;;;18.70;99.90;;;;;;5026571;28;20183;-81
2021/09/15 06:26:03;;;;;;;14.03;12.57;;;18.60;99.90;;;;;;5023484;28;20179;-82
2021/09/15 06:28:29;;;;;;;13.83;12.53;;;18.60;99.90;;;;;;5026098;28;20175;-81
2021/09/15 06:30:56;;;;;;;12.57;11.37;;;18.60;99.90;;;;;;5025655;28;20213;-81
2021/09/15 06:33:22;;;;;;;13.23;12.03;;;18.60;99.90;;;;;;5025022;28;20179;-82
2021/09/15 06:35:48;;;;;;;13.70;12.40;;;18.60;99.90;;;;;;5025898;28;20179;-82
2021/09/15 06:38:13;;;;;;;12.73;11.60;;;18.60;99.90;;;;;;5025858;28;20179;-82
2021/09/15 06:40:39;;;;;;;13.43;12.10;;;18.50;99.90;;;;;;5023955;28;20203;-82
2021/09/15 06:43:05;;;;;;;12.07;11.07;;;18.60;99.90;;;;;;5026133;28;20238;-81
2021/09/15 06:45:31;;;;;;;15.07;11.90;;;18.60;99.90;;;;;;5026492;28;20191;-81
2021/09/15 06:47:57;;;;;;;12.33;11.23;;;18.60;99.90;;;;;;5024398;28;20190;-81
2021/09/15 06:50:22;;;;;;;12.67;11.40;;;18.60;99.90;;;;;;5024444;28;20257;-82
2021/09/15 06:52:48;;;;;;;12.73;11.53;;;18.60;99.90;;;;;;5022338;28;20187;-82
2021/09/15 06:55:14;;;;;;;13.60;12.53;;;18.60;99.90;;;;;;5023647;28;20187;-82
2021/09/15 06:57:39;;;;;;;14.13;12.70;;;18.70;99.90;;;;;;5021917;28;20269;-81
2021/09/15 07:00:07;;;;;;;13.63;12.43;;;18.70;99.90;;;;;;5020111;28;20183;-81
2021/09/15 07:02:33;;;;;;;13.83;12.40;;;18.70;99.90;;;;;;5019911;28;20326;-80
2021/09/15 07:04:59;;;;;;;14.10;12.90;;;18.70;99.90;;;;;;5021403;28;20210;-82
2021/09/15 07:07:24;;;;;;;14.13;12.73;;;18.60;99.90;;;;;;5022564;28;20187;-82
2021/09/15 07:09:50;;;;;;;15.03;13.47;;;18.70;99.90;;;;;;5020617;28;20206;-81
2021/09/15 07:12:16;;;;;;;22.33;15.80;;;18.60;99.90;;;;;;5020117;28;20198;-81
2021/09/15 07:14:42;;;;;;;21.27;16.43;;;18.70;99.90;;;;;;5020479;28;20179;-81
2021/09/15 07:17:07;;;;;;;16.90;15.13;;;18.70;99.90;;;;;;5022572;28;20205;-81
2021/09/15 07:19:33;;;;;;;16.57;14.87;;;18.70;99.90;;;;;;5020103;28;20325;-81
2021/09/15 07:21:59;;;;;;;17.60;14.27;;;18.80;99.90;;;;;;5022149;28;20217;-81
2021/09/15 07:24:25;;;;;;;16.50;13.33;;;18.90;99.90;;;;;;5022755;28;20194;-81
2021/09/15 07:26:51;;;;;;;16.50;14.80;;;18.90;99.90;;;;;;5024565;28;20233;-81
2021/09/15 07:29:17;;;;;;;16.30;14.20;;;18.90;99.90;;;;;;5024523;28;20206;-81
2021/09/15 07:31:43;;;;;;;18.03;14.80;;;18.90;99.90;;;;;;5023192;28;20221;-82
2021/09/15 07:34:09;;;;;;;16.70;15.20;;;18.90;99.90;;;;;;5023431;28;20195;-81
2021/09/15 07:36:35;;;;;;;16.63;14.33;;;18.90;99.90;;;;;;5023873;28;20554;-81
2021/09/15 07:39:02;;;;;;;18.37;15.13;;;19.00;99.90;;;;;;5028101;28;20191;-82
2021/09/15 07:41:28;;;;;;;18.93;16.03;;;19.00;99.90;;;;;;5030508;28;20199;-82
2021/09/15 07:43:54;;;;;;;18.43;16.30;;;19.00;99.90;;;;;;5028556;28;20194;-82
2021/09/15 07:46:21;;;;;;;29.60;19.33;;;19.00;99.90;;;;;;5029789;28;20198;-82
2021/09/15 07:48:48;;;;;;;32.10;22.57;;;19.10;99.90;;;;;;5029106;28;20183;-82
2021/09/15 07:51:15;;;;;;;26.13;19.33;;;19.10;99.90;;;;;;5030634;28;20199;-81
2021/09/15 07:53:41;;;;;;;20.63;17.97;;;19.10;99.90;;;;;;5029692;28;20186;-81
2021/09/15 07:56:06;;;;;;;20.30;15.40;;;19.20;99.90;;;;;;5030431;28;20187;-82
2021/09/15 07:58:32;;;;;;;15.23;13.87;;;19.20;99.90;;;;;;5028398;28;20745;-82
2021/09/15 08:00:57;;;;;;;15.53;13.90;;;19.20;99.90;;;;;;5030329;28;20245;-82
2021/09/15 08:03:23;;;;;;;13.67;12.57;;;19.30;99.90;;;;;;5030825;28;20190;-82
2021/09/15 08:05:49;;;;;;;13.17;12.07;;;19.30;99.90;;;;;;5031536;28;20171;-82
2021/09/15 08:08:14;;;;;;;13.43;12.33;;;19.30;99.90;;;;;;5021150;28;20183;-82
2021/09/15 08:10:41;;;;;;;12.60;11.60;;;19.30;99.90;;;;;;5023455;28;20210;-82
2021/09/15 08:13:07;;;;;;;13.73;12.33;;;19.30;99.90;;;;;;5033055;28;20190;-82
2021/09/15 08:15:33;;;;;;;13.63;12.37;;;19.30;99.90;;;;;;5033190;28;20190;-81
2021/09/15 08:17:59;;;;;;;13.33;12.20;;;19.40;99.90;;;;;;5031944;28;20163;-82
2021/09/15 08:20:25;;;;;;;13.77;12.67;;;19.40;99.90;;;;;;5033368;28;20251;-82
2021/09/15 08:22:51;;;;;;;13.67;12.57;;;19.40;99.90;;;;;;5034143;28;20210;-82
2021/09/15 08:25:16;;;;;;;13.13;11.83;;;19.40;99.90;;;;;;5035995;28;20201;-82
2021/09/15 08:27:42;;;;;;;12.87;11.87;;;19.50;99.90;;;;;;5031904;28;20254;-82
2021/09/15 08:30:09;;;;;;;13.53;12.33;;;19.50;99.90;;;;;;5033425;28;20295;-81
2021/09/15 08:32:35;;;;;;;13.23;11.90;;;19.60;99.90;;;;;;5033468;28;20171;-81
2021/09/15 08:35:00;;;;;;;13.40;11.33;;;19.60;99.90;;;;;;5032936;28;20206;-82
2021/09/15 08:37:26;;;;;;;13.40;12.07;;;19.60;99.90;;;;;;5032635;28;20178;-82
2021/09/15 08:39:52;;;;;;;12.40;11.30;;;19.70;99.90;;;;;;5032659;28;20183;-82
2021/09/15 08:42:17;;;;;;;11.63;10.63;;;19.70;99.90;;;;;;5030284;28;20201;-82
2021/09/15 08:44:43;;;;;;;11.67;10.57;;;19.70;99.90;;;;;;5031723;28;20187;-81
2021/09/15 08:47:09;;;;;;;11.93;10.93;;;19.70;99.90;;;;;;5031746;28;20246;-81
2021/09/15 08:49:36;;;;;;;11.63;10.63;;;19.70;99.90;;;;;;5029379;28;20215;-82
2021/09/15 08:52:02;;;;;;;11.70;10.70;;;19.70;99.90;;;;;;5032599;28;20206;-82
2021/09/15 08:54:29;;;;;;;12.67;11.37;;;19.70;99.90;;;;;;5033426;28;20573;-82
2021/09/15 08:56:54;;;;;;;15.07;10.90;;;19.80;99.90;;;;;;5032830;28;20238;-82
2021/09/15 08:59:20;;;;;;;12.90;10.97;;;19.80;99.90;;;;;;5031433;28;20179;-82
2021/09/15 09:01:46;;;;;;;12.53;11.40;;;19.80;99.90;;;;;;5033019;28;20251;-82
2021/09/15 09:04:15;;;;;;;11.93;10.83;;;19.80;99.90;;;;;;5031969;28;20193;-83
2021/09/15 09:06:41;;;;;;;13.53;12.43;;;19.80;99.90;;;;;;5031232;28;20191;-82
2021/09/15 09:09:07;;;;;;;12.60;11.50;;;19.80;99.90;;;;;;5028113;28;20310;-82
2021/09/15 09:11:35;;;;;;;12.70;11.60;;;19.80;99.90;;;;;;5024235;28;20223;-82
2021/09/15 09:14:06;;;;;;;12.30;11.20;;;19.80;99.90;;;;;;5024359;28;20179;-82
2021/09/15 09:16:44;;;;;;;11.90;10.80;;;19.80;99.90;;;;;;5025660;28;20179;-82
2021/09/15 09:19:15;;;;;;;11.30;10.30;;;19.80;99.90;;;;;;5025648;28;20553;-82
2021/09/15 09:21:49;;;;;;;11.90;10.90;;;19.90;99.90;;;;;;5024434;28;20325;-82
2021/09/15 09:24:23;;;;;;;11.83;10.70;;;20.00;99.90;;;;;;5021921;28;20176;-82
2021/09/15 09:26:52;;;;;;;11.57;10.13;;;20.00;99.90;;;;;;5023863;28;20214;-82
2021/09/15 09:29:24;;;;;;;11.77;10.57;;;20.10;99.90;;;;;;5025534;28;20202;-81
2021/09/15 09:31:59;;;;;;;10.70;9.80;;;20.10;99.90;;;;;;5025212;28;20195;-82
2021/09/15 09:34:25;;;;;;;10.10;9.20;;;20.10;99.90;;;;;;5022927;28;20581;-82
2021/09/15 09:36:58;;;;;;;9.70;8.80;;;20.20;99.90;;;;;;5025114;28;20171;-82
2021/09/15 09:39:40;;;;;;;10.07;9.10;;;20.20;99.90;;;;;;5024626;28;20187;-82
2021/09/15 09:42:26;;;;;;;11.33;8.53;;;20.20;99.90;;;;;;5024321;28;20195;-82
2021/09/15 09:45:08;;;;;;;9.70;8.17;;;20.20;99.90;;;;;;5021194;28;20182;-82
2021/09/15 09:47:37;;;;;;;8.93;8.13;;;20.20;99.90;;;;;;5021520;28;20175;-82
2021/09/15 09:50:16;;;;;;;9.50;8.70;;;20.30;99.90;;;;;;5022928;28;20277;-82
2021/09/15 09:53:02;;;;;;;9.90;8.73;;;20.30;99.90;;;;;;5022736;28;20178;-81
2021/09/15 09:55:33;;;;;;;9.43;8.53;;;20.30;99.90;;;;;;5022806;28;20206;-82
2021/09/15 09:58:00;;;;;;;10.23;9.00;;;20.30;99.90;;;;;;5023074;28;20198;-82
2021/09/15 10:00:26;;;;;;;10.40;9.40;;;20.30;99.90;;;;;;5024090;28;20245;-82
2021/09/15 10:02:52;;;;;;;9.20;8.50;;;20.30;99.90;;;;;;5025555;28;20184;-81
2021/09/15 10:05:20;;;;;;;9.03;8.30;;;20.30;99.90;;;;;;5023556;28;20186;-82
2021/09/15 10:07:46;;;;;;;9.00;8.10;;;20.30;99.90;;;;;;5019847;28;20190;-81
2021/09/15 10:10:15;;;;;;;9.40;8.60;;;20.30;99.90;;;;;;5026635;28;20304;-81
2021/09/15 10:12:41;;;;;;;9.73;8.80;;;20.30;99.90;;;;;;5025629;28;20194;-82
2021/09/15 10:15:11;;;;;;;10.03;9.07;;;20.30;99.90;;;;;;5025581;28;20175;-81
2021/09/15 10:17:39;;;;;;;11.00;9.67;;;20.30;99.90;;;;;;5024647;28;20194;-81
2021/09/15 10:20:08;;;;;;;10.30;9.43;;;20.30;99.90;;;;;;5025272;28;20232;-80
2021/09/15 10:22:43;;;;;;;10.80;9.87;;;20.30;99.90;;;;;;5025482;28;20262;-79
2021/09/15 10:25:09;;;;;;;11.90;10.97;;;20.30;99.90;;;;;;5024762;28;20182;-81
2021/09/15 10:28:05;;;;;;;11.73;10.53;;;20.30;99.90;;;;;;5027748;28;20183;-80
2021/09/15 10:30:48;;;;;;;12.33;10.07;;;20.30;99.90;;;;;;5027589;28;20207;-82
2021/09/15 10:33:36;;;;;;;10.47;9.33;;;20.30;99.90;;;;;;5032181;28;20194;-81
2021/09/15 10:36:35;;;;;;;11.23;10.07;;;20.30;99.90;;;;;;5031743;28;20183;-81
2021/09/15 10:39:01;;;;;;;10.73;9.77;;;20.30;99.90;;;;;;5029103;28;20639;-82
2021/09/15 10:41:33;;;;;;;12.77;11.47;;;20.30;99.90;;;;;;5030637;28;20199;-82
2021/09/15 10:44:16;;;;;;;12.97;11.53;;;20.30;99.90;;;;;;5027832;28;20179;-82
2021/09/15 10:46:43;;;;;;;11.63;10.50;;;20.30;99.90;;;;;;5030959;28;20167;-82
2021/09/15 10:49:32;;;;;;;13.13;11.20;;;20.30;99.90;;;;;;5028730;28;20274;-81
2021/09/15 10:52:06;;;;;;;16.63;11.97;;;20.30;99.90;;;;;;5027367;28;20268;-83
2021/09/15 10:54:52;;;;;;;17.60;13.23;;;20.30;99.90;;;;;;5023315;28;20178;-82
2021/09/15 10:57:27;;;;;;;14.67;12.40;;;20.30;99.90;;;;;;5022774;28;20194;-82
2021/09/15 11:00:01;;;;;;;16.83;12.93;;;20.30;99.90;;;;;;5026642;28;20182;-82
2021/09/15 11:02:28;;;;;;;13.73;12.37;;;20.30;99.90;;;;;;5026700;28;20206;-82
2021/09/15 11:04:55;;;;;;;14.00;12.33;;;20.30;99.90;;;;;;5026322;28;20686;-82
2021/09/15 11:07:49;;;;;;;16.10;12.83;;;20.30;99.90;;;;;;5025397;28;20597;-82
2021/09/15 11:10:33;;;;;;;15.53;12.43;;;20.40;99.90;;;;;;5023989;28;20209;-82
2021/09/15 11:13:06;;;;;;;13.80;12.33;;;20.40;99.90;;;;;;5023664;28;20180;-82
2021/09/15 11:15:42;;;;;;;11.43;10.33;;;20.50;99.90;;;;;;5024826;28;20243;-82
2021/09/15 11:18:14;;;;;;;11.83;10.67;;;20.50;99.90;;;;;;5024141;28;20190;-82
2021/09/15 11:20:40;;;;;;;11.53;10.37;;;20.50;99.90;;;;;;5023905;28;20206;-82
2021/09/15 11:23:17;;;;;;;10.43;9.43;;;20.60;99.90;;;;;;5048135;23;20571;-80
2021/09/15 11:25:49;;;;;;;9.83;8.80;;;20.60;99.90;;;;;;5055335;28;20178;-80
2021/09/15 11:28:17;;;;;;;9.20;8.47;;;20.70;99.90;;;;;;5053812;28;20234;-79
2021/09/15 11:31:01;;;;;;;9.63;8.73;;;20.70;99.90;;;;;;5054107;28;20205;-79
2021/09/15 11:33:27;;;;;;;9.70;8.23;;;20.80;99.90;;;;;;5054133;28;20695;-79
2021/09/15 11:35:58;;;;;;;8.83;8.00;;;20.80;99.90;;;;;;5057848;28;20189;-79
2021/09/15 11:38:26;;;;;;;9.03;8.27;;;20.80;99.90;;;;;;5056679;28;20239;-80
2021/09/15 11:40:52;;;;;;;8.60;7.90;;;20.80;99.90;;;;;;5051744;28;20268;-79
2021/09/15 11:43:20;;;;;;;9.00;8.30;;;20.90;99.90;;;;;;5051267;28;20237;-79
2021/09/15 11:45:48;;;;;;;11.10;10.10;;;20.90;99.90;;;;;;5055172;28;20193;-79
2021/09/15 11:48:25;;;;;;;13.83;11.20;;;21.00;99.90;;;;;;5053637;28;20185;-80
2021/09/15 11:50:51;;;;;;;9.40;8.50;;;21.00;99.90;;;;;;5057677;28;20196;-79
2021/09/15 11:53:16;;;;;;;12.00;8.83;;;21.00;99.90;;;;;;5054717;28;20225;-79
2021/09/15 11:55:48;;;;;;;9.20;8.13;;;21.00;99.90;;;;;;5055301;28;20177;-79
2021/09/15 11:58:14;;;;;;;9.30;8.40;;;21.10;99.90;;;;;;5058867;28;20174;-79
2021/09/15 12:00:41;;;;;;;8.90;8.10;;;21.10;99.90;;;;;;5059241;28;20181;-79
2021/09/15 12:03:09;;;;;;;9.97;7.97;;;21.10;99.90;;;;;;5057636;28;20190;-79
2021/09/15 12:05:36;;;;;;;8.13;7.43;;;21.10;99.90;;;;;;5048421;28;20201;-80
2021/09/15 12:08:05;;;;;;;8.30;7.23;;;21.10;99.90;;;;;;5053156;28;20177;-79
2021/09/15 12:10:31;;;;;;;7.67;6.90;;;21.10;99.90;;;;;;5057541;28;20225;-80
2021/09/15 12:12:58;;;;;;;8.13;7.53;;;21.10;99.90;;;;;;5055754;28;20584;-79
2021/09/15 12:15:24;;;;;;;8.00;7.30;;;21.10;99.90;;;;;;5056880;28;20235;-80
2021/09/15 12:17:57;;;;;;;8.00;7.20;;;21.20;99.90;;;;;;5054008;28;20188;-82
2021/09/15 12:20:38;;;;;;;8.47;7.00;;;21.20;99.90;;;;;;5056010;28;20186;-80
2021/09/15 12:23:04;;;;;;;12.63;7.40;;;21.20;99.90;;;;;;5054105;28;20217;-81
2021/09/15 12:25:29;;;;;;;9.07;8.23;;;21.20;99.90;;;;;;5058191;28;20178;-80
2021/09/15 12:27:58;;;;;;;9.93;7.63;;;21.20;99.90;;;;;;5058026;28;20270;-80
2021/09/15 12:30:24;;;;;;;7.13;6.60;;;21.20;99.90;;;;;;5056665;28;20291;-80
2021/09/15 12:33:00;;;;;;;8.03;7.23;;;21.30;99.90;;;;;;5057499;28;20190;-80
2021/09/15 12:35:34;;;;;;;8.53;7.80;;;21.30;99.90;;;;;;5052913;28;20180;-81
2021/09/15 12:38:01;;;;;;;8.27;7.43;;;21.30;99.90;;;;;;5055205;28;20265;-80
2021/09/15 12:40:27;;;;;;;8.57;7.77;;;21.30;99.90;;;;;;5058678;28;20672;-80
2021/09/15 12:43:03;;;;;;;7.30;6.60;;;21.40;99.90;;;;;;5057032;28;20209;-80